sensor_id;sensor_type;location;lat;lon;timestamp;pressure;altitude;pressure_sealevel;temperature;humidity
83104;BME280;72975;48.134;11.630;2024-02-23T00:01:53;93686.34;;;7.69;73.44
83104;BME280;72975;48.134;11.630;2024-02-23T00:04:23;93604.59;;;7.17;73.15
83104;BME280;72975;48.134;11.630;2024-02-23T00:06:51;93678.41;;;7.66;73.34
83104;BME280;72975;48.134;11.630;2024-02-23T00:09:25;93685.22;;;7.62;73.82
83104;BME280;72975;48.134;11.630;2024-02-23T00:11:54;93693.00;;;7.48;73.47
83104;BME280;72975;48.134;11.630;2024-02-23T00:14:22;93680.13;;;7.57;73.81
83104;BME280;72975;48.134;11.630;2024-02-23T00:17:01;93681.56;;;7.49;74.73
83104;BME280;72975;48.134;11.630;2024-02-23T00:20:03;93606.88;;;7.05;73.82
83104;BME280;72975;48.134;11.630;2024-02-23T00:23:08;93688.47;;;7.40;73.16
83104;BME280;72975;48.134;11.630;2024-02-23T00:25:38;93695.59;;;7.35;72.77
83104;BME280;72975;48.134;11.630;2024-02-23T00:28:17;93681.66;;;7.30;73.37
83104;BME280;72975;48.134;11.630;2024-02-23T00:30:47;93710.97;;;7.31;72.62
83104;BME280;72975;48.134;11.630;2024-02-23T00:33:16;93689.50;;;7.25;72.40
83104;BME280;72975;48.134;11.630;2024-02-23T00:36:06;93687.41;;;7.27;72.66
83104;BME280;72975;48.134;11.630;2024-02-23T00:38:44;93693.75;;;7.21;72.86
83104;BME280;72975;48.134;11.630;2024-02-23T00:41:13;93687.69;;;7.26;72.47
83104;BME280;72975;48.134;11.630;2024-02-23T00:43:46;93711.22;;;7.16;72.36
83104;BME280;72975;48.134;11.630;2024-02-23T00:46:15;93682.41;;;7.31;72.28
83104;BME280;72975;48.134;11.630;2024-02-23T00:48:49;93682.81;;;7.24;71.89
83104;BME280;72975;48.134;11.630;2024-02-23T00:51:17;93691.81;;;7.27;71.99
83104;BME280;72975;48.134;11.630;2024-02-23T00:53:45;93698.06;;;7.26;71.37
83104;BME280;72975;48.134;11.630;2024-02-23T00:56:13;93697.00;;;7.13;72.18
83104;BME280;72975;48.134;11.630;2024-02-23T00:58:40;93709.88;;;7.18;72.42
83104;BME280;72975;48.134;11.630;2024-02-23T01:01:13;93704.13;;;7.21;72.35
83104;BME280;72975;48.134;11.630;2024-02-23T01:03:41;93701.53;;;7.21;72.35
83104;BME280;72975;48.134;11.630;2024-02-23T01:06:11;93717.06;;;7.08;72.54
83104;BME280;72975;48.134;11.630;2024-02-23T01:08:38;93708.44;;;7.12;72.80
83104;BME280;72975;48.134;11.630;2024-02-23T01:11:07;93719.28;;;7.01;72.38
83104;BME280;72975;48.134;11.630;2024-02-23T01:13:38;93705.84;;;7.12;72.15
83104;BME280;72975;48.134;11.630;2024-02-23T01:16:09;93720.44;;;7.08;72.22
83104;BME280;72975;48.134;11.630;2024-02-23T01:18:37;93728.97;;;7.09;72.05
83104;BME280;72975;48.134;11.630;2024-02-23T01:21:04;93730.63;;;7.18;71.96
83104;BME280;72975;48.134;11.630;2024-02-23T01:23:53;93691.38;;;6.92;71.75
83104;BME280;72975;48.134;11.630;2024-02-23T01:26:21;93738.03;;;7.11;71.96
83104;BME280;72975;48.134;11.630;2024-02-23T01:28:51;93744.06;;;7.07;71.41
83104;BME280;72975;48.134;11.630;2024-02-23T01:31:19;93749.25;;;7.07;71.95
83104;BME280;72975;48.134;11.630;2024-02-23T01:33:46;93742.44;;;7.11;72.27
83104;BME280;72975;48.134;11.630;2024-02-23T01:36:16;93747.06;;;7.14;71.51
83104;BME280;72975;48.134;11.630;2024-02-23T01:38:44;93756.34;;;7.01;71.09
83104;BME280;72975;48.134;11.630;2024-02-23T01:41:12;93757.72;;;7.12;71.11
83104;BME280;72975;48.134;11.630;2024-02-23T01:43:42;93754.72;;;7.05;71.12
83104;BME280;72975;48.134;11.630;2024-02-23T01:46:12;93760.03;;;7.14;70.58
83104;BME280;72975;48.134;11.630;2024-02-23T01:48:41;93751.44;;;7.00;70.01
83104;BME280;72975;48.134;11.630;2024-02-23T01:51:08;93747.97;;;6.90;70.35
83104;BME280;72975;48.134;11.630;2024-02-23T01:53:36;93746.44;;;7.03;70.02
83104;BME280;72975;48.134;11.630;2024-02-23T01:56:07;93738.19;;;7.01;69.96
83104;BME280;72975;48.134;11.630;2024-02-23T01:58:40;93747.38;;;6.93;70.05
83104;BME280;72975;48.134;11.630;2024-02-23T02:01:10;93745.72;;;6.84;70.50
83104;BME280;72975;48.134;11.630;2024-02-23T02:03:49;93746.03;;;6.96;70.31
83104;BME280;72975;48.134;11.630;2024-02-23T02:06:18;93755.59;;;6.82;70.80
83104;BME280;72975;48.134;11.630;2024-02-23T02:08:46;93750.63;;;6.85;70.67
83104;BME280;72975;48.134;11.630;2024-02-23T02:11:22;93749.78;;;6.90;70.67
83104;BME280;72975;48.134;11.630;2024-02-23T02:13:53;93745.25;;;6.63;71.32
83104;BME280;72975;48.134;11.630;2024-02-23T02:16:23;93750.88;;;6.70;71.62
83104;BME280;72975;48.134;11.630;2024-02-23T02:18:56;93745.97;;;6.69;71.49
83104;BME280;72975;48.134;11.630;2024-02-23T02:21:28;93754.56;;;6.64;71.37
83104;BME280;72975;48.134;11.630;2024-02-23T02:23:56;93760.31;;;6.80;71.09
83104;BME280;72975;48.134;11.630;2024-02-23T02:26:26;93763.06;;;6.70;70.73
83104;BME280;72975;48.134;11.630;2024-02-23T02:29:01;93775.38;;;6.78;70.74
83104;BME280;72975;48.134;11.630;2024-02-23T02:31:39;93778.03;;;6.73;70.02
83104;BME280;72975;48.134;11.630;2024-02-23T02:34:09;93773.59;;;6.73;70.07
83104;BME280;72975;48.134;11.630;2024-02-23T02:36:40;93742.31;;;6.32;69.61
83104;BME280;72975;48.134;11.630;2024-02-23T02:39:08;93788.81;;;6.61;69.80
83104;BME280;72975;48.134;11.630;2024-02-23T02:41:38;93795.63;;;6.76;70.00
83104;BME280;72975;48.134;11.630;2024-02-23T02:44:05;93786.94;;;6.67;69.59
83104;BME280;72975;48.134;11.630;2024-02-23T02:46:33;93789.88;;;6.79;69.67
83104;BME280;72975;48.134;11.630;2024-02-23T02:49:01;93795.13;;;6.74;69.42
83104;BME280;72975;48.134;11.630;2024-02-23T02:51:29;93794.97;;;6.65;70.03
83104;BME280;72975;48.134;11.630;2024-02-23T02:54:06;93805.75;;;6.72;69.78
83104;BME280;72975;48.134;11.630;2024-02-23T02:56:34;93804.16;;;6.57;70.17
83104;BME280;72975;48.134;11.630;2024-02-23T02:59:01;93811.03;;;6.67;70.30
83104;BME280;72975;48.134;11.630;2024-02-23T03:01:32;93794.31;;;6.59;70.08
83104;BME280;72975;48.134;11.630;2024-02-23T03:04:00;93793.06;;;6.71;70.20
83104;BME280;72975;48.134;11.630;2024-02-23T03:06:30;93789.31;;;6.44;70.92
83104;BME280;72975;48.134;11.630;2024-02-23T03:09:00;93803.25;;;6.48;70.14
83104;BME280;72975;48.134;11.630;2024-02-23T03:11:28;93786.34;;;6.51;70.37
83104;BME280;72975;48.134;11.630;2024-02-23T03:13:55;93791.97;;;6.58;70.63
83104;BME280;72975;48.134;11.630;2024-02-23T03:16:23;93791.75;;;6.54;71.56
83104;BME280;72975;48.134;11.630;2024-02-23T03:18:53;93798.13;;;6.43;71.43
83104;BME280;72975;48.134;11.630;2024-02-23T03:21:24;93793.34;;;6.50;69.40
83104;BME280;72975;48.134;11.630;2024-02-23T03:23:53;93798.91;;;6.44;70.16
83104;BME280;72975;48.134;11.630;2024-02-23T03:26:25;93797.25;;;6.29;69.76
83104;BME280;72975;48.134;11.630;2024-02-23T03:28:53;93808.50;;;6.43;69.82
83104;BME280;72975;48.134;11.630;2024-02-23T03:31:21;93794.50;;;6.44;70.20
83104;BME280;72975;48.134;11.630;2024-02-23T03:33:52;93800.09;;;6.51;70.06
83104;BME280;72975;48.134;11.630;2024-02-23T03:36:19;93787.72;;;6.48;70.06
83104;BME280;72975;48.134;11.630;2024-02-23T03:38:47;93788.03;;;6.23;70.97
83104;BME280;72975;48.134;11.630;2024-02-23T03:41:17;93798.91;;;6.44;70.34
83104;BME280;72975;48.134;11.630;2024-02-23T03:43:45;93791.91;;;6.44;70.45
83104;BME280;72975;48.134;11.630;2024-02-23T03:46:13;93788.41;;;6.35;70.08
83104;BME280;72975;48.134;11.630;2024-02-23T03:48:42;93798.19;;;6.38;70.37
83104;BME280;72975;48.134;11.630;2024-02-23T03:51:12;93814.31;;;6.35;70.19
83104;BME280;72975;48.134;11.630;2024-02-23T03:53:39;93791.25;;;6.34;69.98
83104;BME280;72975;48.134;11.630;2024-02-23T03:56:07;93793.13;;;6.28;70.20
83104;BME280;72975;48.134;11.630;2024-02-23T03:58:36;93810.94;;;6.35;70.40
83104;BME280;72975;48.134;11.630;2024-02-23T04:01:03;93810.16;;;6.34;70.35
83104;BME280;72975;48.134;11.630;2024-02-23T04:03:35;93812.75;;;6.34;70.80
83104;BME280;72975;48.134;11.630;2024-02-23T04:06:04;93805.31;;;6.28;71.82
83104;BME280;72975;48.134;11.630;2024-02-23T04:08:33;93805.88;;;6.25;71.48
83104;BME280;72975;48.134;11.630;2024-02-23T04:11:03;93815.97;;;6.26;70.55
83104;BME280;72975;48.134;11.630;2024-02-23T04:13:31;93821.81;;;6.13;70.74
83104;BME280;72975;48.134;11.630;2024-02-23T04:16:03;93812.44;;;6.17;70.56
83104;BME280;72975;48.134;11.630;2024-02-23T04:18:31;93820.66;;;6.24;70.19
83104;BME280;72975;48.134;11.630;2024-02-23T04:21:03;93815.03;;;6.17;70.77
83104;BME280;72975;48.134;11.630;2024-02-23T04:23:33;93817.47;;;6.08;70.90
83104;BME280;72975;48.134;11.630;2024-02-23T04:26:01;93813.59;;;6.06;71.21
83104;BME280;72975;48.134;11.630;2024-02-23T04:28:32;93814.44;;;6.01;71.19
83104;BME280;72975;48.134;11.630;2024-02-23T04:31:01;93823.25;;;6.00;70.92
83104;BME280;72975;48.134;11.630;2024-02-23T04:33:28;93816.53;;;5.99;70.97
83104;BME280;72975;48.134;11.630;2024-02-23T04:35:58;93819.38;;;5.98;70.79
83104;BME280;72975;48.134;11.630;2024-02-23T04:38:26;93823.75;;;6.02;70.11
83104;BME280;72975;48.134;11.630;2024-02-23T04:40:54;93828.16;;;6.02;70.48
83104;BME280;72975;48.134;11.630;2024-02-23T04:43:24;93831.75;;;5.77;70.11
83104;BME280;72975;48.134;11.630;2024-02-23T04:45:55;93820.88;;;5.75;70.76
83104;BME280;72975;48.134;11.630;2024-02-23T04:48:23;93825.13;;;5.66;70.76
83104;BME280;72975;48.134;11.630;2024-02-23T04:51:03;93833.63;;;5.71;70.50
83104;BME280;72975;48.134;11.630;2024-02-23T04:53:37;93826.25;;;5.83;70.54
83104;BME280;72975;48.134;11.630;2024-02-23T04:56:07;93829.16;;;5.77;70.79
83104;BME280;72975;48.134;11.630;2024-02-23T04:58:45;93826.69;;;5.67;71.11
83104;BME280;72975;48.134;11.630;2024-02-23T05:01:15;93826.56;;;5.77;71.05
83104;BME280;72975;48.134;11.630;2024-02-23T05:03:45;93825.41;;;5.64;71.33
83104;BME280;72975;48.134;11.630;2024-02-23T05:06:13;93823.81;;;5.68;72.04
83104;BME280;72975;48.134;11.630;2024-02-23T05:08:40;93822.19;;;5.48;73.04
83104;BME280;72975;48.134;11.630;2024-02-23T05:11:08;93818.38;;;5.41;74.24
83104;BME280;72975;48.134;11.630;2024-02-23T05:13:37;93799.84;;;5.58;73.58
83104;BME280;72975;48.134;11.630;2024-02-23T05:16:09;93805.69;;;5.10;74.83
83104;BME280;72975;48.134;11.630;2024-02-23T05:18:40;93812.44;;;5.40;74.66
83104;BME280;72975;48.134;11.630;2024-02-23T05:21:09;93813.69;;;5.43;74.92
83104;BME280;72975;48.134;11.630;2024-02-23T05:23:38;93811.28;;;5.23;75.38
83104;BME280;72975;48.134;11.630;2024-02-23T05:26:06;93818.94;;;5.38;75.06
83104;BME280;72975;48.134;11.630;2024-02-23T05:28:37;93823.06;;;5.39;75.67
83104;BME280;72975;48.134;11.630;2024-02-23T05:31:05;93825.44;;;5.30;76.22
83104;BME280;72975;48.134;11.630;2024-02-23T05:33:35;93829.09;;;5.29;76.38
83104;BME280;72975;48.134;11.630;2024-02-23T05:36:08;93829.47;;;5.41;76.14
83104;BME280;72975;48.134;11.630;2024-02-23T05:38:35;93830.81;;;5.39;76.46
83104;BME280;72975;48.134;11.630;2024-02-23T05:41:03;93828.44;;;5.42;76.48
83104;BME280;72975;48.134;11.630;2024-02-23T05:43:35;93836.94;;;5.48;76.43
83104;BME280;72975;48.134;11.630;2024-02-23T05:46:03;93833.50;;;5.58;76.13
83104;BME280;72975;48.134;11.630;2024-02-23T05:48:36;93833.31;;;5.49;76.68
83104;BME280;72975;48.134;11.630;2024-02-23T05:51:16;93839.03;;;5.46;77.05
83104;BME280;72975;48.134;11.630;2024-02-23T05:53:44;93840.34;;;5.43;77.08
83104;BME280;72975;48.134;11.630;2024-02-23T05:56:12;93847.88;;;5.40;77.04
83104;BME280;72975;48.134;11.630;2024-02-23T05:58:41;93850.16;;;5.46;77.17
83104;BME280;72975;48.134;11.630;2024-02-23T06:01:14;93847.22;;;5.53;76.66
83104;BME280;72975;48.134;11.630;2024-02-23T06:03:45;93848.06;;;5.48;77.09
83104;BME280;72975;48.134;11.630;2024-02-23T06:06:15;93861.81;;;5.44;77.04
83104;BME280;72975;48.134;11.630;2024-02-23T06:08:46;93857.81;;;5.57;76.66
83104;BME280;72975;48.134;11.630;2024-02-23T06:11:14;93856.19;;;5.37;77.94
83104;BME280;72975;48.134;11.630;2024-02-23T06:13:42;93863.06;;;5.52;76.69
83104;BME280;72975;48.134;11.630;2024-02-23T06:16:11;93863.88;;;5.42;76.27
83104;BME280;72975;48.134;11.630;2024-02-23T06:18:42;93866.00;;;5.40;76.01
83104;BME280;72975;48.134;11.630;2024-02-23T06:21:31;93867.47;;;5.46;75.04
83104;BME280;72975;48.134;11.630;2024-02-23T06:24:00;93874.22;;;5.42;74.21
83104;BME280;72975;48.134;11.630;2024-02-23T06:26:45;93885.66;;;5.36;74.65
83104;BME280;72975;48.134;11.630;2024-02-23T06:29:22;93811.00;;;4.95;74.43
83104;BME280;72975;48.134;11.630;2024-02-23T06:31:50;93885.06;;;5.49;74.01
83104;BME280;72975;48.134;11.630;2024-02-23T06:34:22;93892.25;;;5.52;73.70
83104;BME280;72975;48.134;11.630;2024-02-23T06:37:05;93897.06;;;5.35;72.96
83104;BME280;72975;48.134;11.630;2024-02-23T06:39:44;93890.25;;;5.44;73.40
83104;BME280;72975;48.134;11.630;2024-02-23T06:42:17;93892.84;;;5.44;72.10
83104;BME280;72975;48.134;11.630;2024-02-23T06:44:45;93899.78;;;5.14;72.50
83104;BME280;72975;48.134;11.630;2024-02-23T06:47:13;93893.25;;;5.27;72.80
83104;BME280;72975;48.134;11.630;2024-02-23T06:49:45;93881.34;;;5.26;72.87
83104;BME280;72975;48.134;11.630;2024-02-23T06:52:13;93880.94;;;5.43;72.17
83104;BME280;72975;48.134;11.630;2024-02-23T06:54:41;93878.38;;;5.43;72.36
83104;BME280;72975;48.134;11.630;2024-02-23T06:57:09;93871.56;;;5.52;72.02
83104;BME280;72975;48.134;11.630;2024-02-23T06:59:39;93874.16;;;5.52;71.59
83104;BME280;72975;48.134;11.630;2024-02-23T07:02:17;93892.41;;;5.66;71.58
83104;BME280;72975;48.134;11.630;2024-02-23T07:04:46;93890.91;;;5.60;72.17
83104;BME280;72975;48.134;11.630;2024-02-23T07:07:16;93891.44;;;5.62;71.50
83104;BME280;72975;48.134;11.630;2024-02-23T07:09:44;93897.91;;;5.59;71.14
83104;BME280;72975;48.134;11.630;2024-02-23T07:12:11;93897.94;;;5.54;71.22
83104;BME280;72975;48.134;11.630;2024-02-23T07:14:41;93892.69;;;5.64;71.53
83104;BME280;72975;48.134;11.630;2024-02-23T07:17:09;93897.75;;;5.45;71.02
83104;BME280;72975;48.134;11.630;2024-02-23T07:19:39;93902.47;;;5.72;70.68
83104;BME280;72975;48.134;11.630;2024-02-23T07:22:07;93905.78;;;5.44;70.32
83104;BME280;72975;48.134;11.630;2024-02-23T07:24:41;93917.38;;;5.52;69.82
83104;BME280;72975;48.134;11.630;2024-02-23T07:27:09;93919.47;;;5.49;70.14
83104;BME280;72975;48.134;11.630;2024-02-23T07:29:37;93919.97;;;5.52;70.30
83104;BME280;72975;48.134;11.630;2024-02-23T07:32:05;93923.88;;;5.49;70.96
83104;BME280;72975;48.134;11.630;2024-02-23T07:34:36;93919.53;;;5.39;71.47
83104;BME280;72975;48.134;11.630;2024-02-23T07:37:07;93933.19;;;5.45;71.87
83104;BME280;72975;48.134;11.630;2024-02-23T07:39:36;93941.97;;;5.49;72.05
83104;BME280;72975;48.134;11.630;2024-02-23T07:42:04;93937.94;;;5.33;72.64
83104;BME280;72975;48.134;11.630;2024-02-23T07:44:37;93938.44;;;5.35;72.66
83104;BME280;72975;48.134;11.630;2024-02-23T07:47:08;93935.53;;;5.41;72.42
83104;BME280;72975;48.134;11.630;2024-02-23T07:49:37;93928.34;;;5.33;72.66
83104;BME280;72975;48.134;11.630;2024-02-23T07:52:11;93918.75;;;5.39;71.80
83104;BME280;72975;48.134;11.630;2024-02-23T07:54:39;93924.63;;;5.49;71.26
83104;BME280;72975;48.134;11.630;2024-02-23T07:57:10;93930.59;;;5.50;70.88
83104;BME280;72975;48.134;11.630;2024-02-23T07:59:38;93919.41;;;5.55;70.84
83104;BME280;72975;48.134;11.630;2024-02-23T08:02:06;93919.50;;;5.44;69.97
83104;BME280;72975;48.134;11.630;2024-02-23T08:04:33;93917.09;;;5.53;70.40
83104;BME280;72975;48.134;11.630;2024-02-23T08:07:04;93909.66;;;5.41;70.14
83104;BME280;72975;48.134;11.630;2024-02-23T08:09:32;93911.81;;;5.34;70.49
83104;BME280;72975;48.134;11.630;2024-02-23T08:12:00;93899.84;;;5.43;70.66
83104;BME280;72975;48.134;11.630;2024-02-23T08:14:30;93893.81;;;5.53;69.79
83104;BME280;72975;48.134;11.630;2024-02-23T08:16:58;93886.34;;;5.52;69.53
83104;BME280;72975;48.134;11.630;2024-02-23T08:19:33;93886.78;;;5.59;69.35
83104;BME280;72975;48.134;11.630;2024-02-23T08:22:04;93903.63;;;5.56;69.09
83104;BME280;72975;48.134;11.630;2024-02-23T08:24:32;93910.69;;;5.45;68.61
83104;BME280;72975;48.134;11.630;2024-02-23T08:27:03;93890.44;;;5.53;69.29
83104;BME280;72975;48.134;11.630;2024-02-23T08:29:37;93876.09;;;5.65;68.35
83104;BME280;72975;48.134;11.630;2024-02-23T08:32:27;93892.25;;;5.52;68.82
83104;BME280;72975;48.134;11.630;2024-02-23T08:34:55;93894.72;;;5.67;68.70
83104;BME280;72975;48.134;11.630;2024-02-23T08:37:31;93891.69;;;5.60;68.17
83104;BME280;72975;48.134;11.630;2024-02-23T08:40:06;93881.75;;;5.72;68.45
83104;BME280;72975;48.134;11.630;2024-02-23T08:42:40;93876.88;;;5.66;67.48
83104;BME280;72975;48.134;11.630;2024-02-23T08:45:10;93888.50;;;5.68;67.20
83104;BME280;72975;48.134;11.630;2024-02-23T08:47:41;93894.19;;;5.70;67.53
83104;BME280;72975;48.134;11.630;2024-02-23T08:50:09;93892.69;;;5.64;67.41
83104;BME280;72975;48.134;11.630;2024-02-23T08:52:37;93890.22;;;5.78;67.81
83104;BME280;72975;48.134;11.630;2024-02-23T08:55:07;93896.22;;;5.73;67.90
83104;BME280;72975;48.134;11.630;2024-02-23T08:57:37;93923.03;;;5.54;67.81
83104;BME280;72975;48.134;11.630;2024-02-23T09:00:08;93932.06;;;5.61;67.75
83104;BME280;72975;48.134;11.630;2024-02-23T09:02:52;93934.06;;;5.64;68.30
83104;BME280;72975;48.134;11.630;2024-02-23T09:05:20;93941.91;;;5.59;68.56
83104;BME280;72975;48.134;11.630;2024-02-23T09:07:48;93932.75;;;5.72;68.29
83104;BME280;72975;48.134;11.630;2024-02-23T09:10:16;93939.38;;;5.83;67.63
83104;BME280;72975;48.134;11.630;2024-02-23T09:12:46;93945.44;;;6.02;67.02
83104;BME280;72975;48.134;11.630;2024-02-23T09:15:14;93951.06;;;5.75;66.63
83104;BME280;72975;48.134;11.630;2024-02-23T09:17:42;93959.72;;;6.00;66.17
83104;BME280;72975;48.134;11.630;2024-02-23T09:20:11;93977.00;;;5.70;65.26
83104;BME280;72975;48.134;11.630;2024-02-23T09:22:39;93980.66;;;5.64;64.18
83104;BME280;72975;48.134;11.630;2024-02-23T09:25:07;93984.44;;;5.77;64.33
83104;BME280;72975;48.134;11.630;2024-02-23T09:27:35;93982.13;;;5.75;64.68
83104;BME280;72975;48.134;11.630;2024-02-23T09:30:13;93972.78;;;5.79;64.19
83104;BME280;72975;48.134;11.630;2024-02-23T09:32:49;93980.56;;;5.79;64.50
83104;BME280;72975;48.134;11.630;2024-02-23T09:35:20;93978.84;;;5.65;64.57
83104;BME280;72975;48.134;11.630;2024-02-23T09:37:48;93984.19;;;5.78;64.54
83104;BME280;72975;48.134;11.630;2024-02-23T09:40:15;93973.00;;;5.88;64.93
83104;BME280;72975;48.134;11.630;2024-02-23T09:42:46;93977.69;;;5.81;64.74
83104;BME280;72975;48.134;11.630;2024-02-23T09:45:16;93976.41;;;5.83;64.81
83104;BME280;72975;48.134;11.630;2024-02-23T09:47:47;93975.56;;;5.54;65.41
83104;BME280;72975;48.134;11.630;2024-02-23T09:50:18;93979.00;;;5.78;65.03
83104;BME280;72975;48.134;11.630;2024-02-23T09:52:48;93987.88;;;5.72;65.37
83104;BME280;72975;48.134;11.630;2024-02-23T09:55:19;93977.09;;;5.60;65.67
83104;BME280;72975;48.134;11.630;2024-02-23T09:57:57;93973.84;;;5.78;65.81
83104;BME280;72975;48.134;11.630;2024-02-23T10:00:28;93968.66;;;5.78;64.58
83104;BME280;72975;48.134;11.630;2024-02-23T10:03:17;93959.53;;;5.86;65.60
83104;BME280;72975;48.134;11.630;2024-02-23T10:05:45;93980.03;;;5.82;65.71
83104;BME280;72975;48.134;11.630;2024-02-23T10:08:21;93986.06;;;5.68;65.81
83104;BME280;72975;48.134;11.630;2024-02-23T10:11:00;93988.06;;;5.81;65.76
83104;BME280;72975;48.134;11.630;2024-02-23T10:13:37;93987.78;;;5.82;64.58
83104;BME280;72975;48.134;11.630;2024-02-23T10:16:08;93985.88;;;5.59;66.29
83104;BME280;72975;48.134;11.630;2024-02-23T10:18:44;93987.00;;;5.48;67.61
83104;BME280;72975;48.134;11.630;2024-02-23T10:21:15;93986.66;;;5.60;67.18
83104;BME280;72975;48.134;11.630;2024-02-23T10:23:53;93991.31;;;5.19;68.74
83104;BME280;72975;48.134;11.630;2024-02-23T10:26:22;93986.03;;;5.34;68.63
83104;BME280;72975;48.134;11.630;2024-02-23T10:28:50;93977.28;;;5.30;68.76
83104;BME280;72975;48.134;11.630;2024-02-23T10:31:19;93963.84;;;5.28;69.24
83104;BME280;72975;48.134;11.630;2024-02-23T10:33:46;93968.66;;;4.95;70.57
83104;BME280;72975;48.134;11.630;2024-02-23T10:36:16;93972.44;;;5.18;69.64
83104;BME280;72975;48.134;11.630;2024-02-23T10:39:05;93969.81;;;5.23;70.46
83104;BME280;72975;48.134;11.630;2024-02-23T10:41:44;93965.16;;;5.20;70.35
83104;BME280;72975;48.134;11.630;2024-02-23T10:44:17;93963.66;;;5.09;69.67
83104;BME280;72975;48.134;11.630;2024-02-23T10:46:53;93964.72;;;5.08;69.60
83104;BME280;72975;48.134;11.630;2024-02-23T10:49:26;93965.78;;;5.02;69.98
83104;BME280;72975;48.134;11.630;2024-02-23T10:51:55;93956.22;;;5.02;70.09
83104;BME280;72975;48.134;11.630;2024-02-23T10:54:26;93952.78;;;5.17;69.68
83104;BME280;72975;48.134;11.630;2024-02-23T10:56:55;93949.38;;;5.22;69.77
83104;BME280;72975;48.134;11.630;2024-02-23T10:59:24;93962.81;;;5.24;69.34
83104;BME280;72975;48.134;11.630;2024-02-23T11:01:53;93960.28;;;5.13;69.49
83104;BME280;72975;48.134;11.630;2024-02-23T11:04:26;93965.38;;;5.29;69.47
83104;BME280;72975;48.134;11.630;2024-02-23T11:06:55;93978.97;;;5.05;69.83
83104;BME280;72975;48.134;11.630;2024-02-23T11:09:26;93986.25;;;4.88;69.83
83104;BME280;72975;48.134;11.630;2024-02-23T11:11:58;93979.22;;;4.99;69.36
83104;BME280;72975;48.134;11.630;2024-02-23T11:14:32;93976.13;;;5.02;69.14
83104;BME280;72975;48.134;11.630;2024-02-23T11:17:03;93972.28;;;4.94;68.58
83104;BME280;72975;48.134;11.630;2024-02-23T11:19:35;93972.44;;;5.13;68.56
83104;BME280;72975;48.134;11.630;2024-02-23T11:22:04;93972.97;;;5.10;68.51
83104;BME280;72975;48.134;11.630;2024-02-23T11:24:43;93975.81;;;5.13;67.87
83104;BME280;72975;48.134;11.630;2024-02-23T11:27:16;93984.44;;;4.89;69.02
83104;BME280;72975;48.134;11.630;2024-02-23T11:29:52;93965.31;;;4.90;69.11
83104;BME280;72975;48.134;11.630;2024-02-23T11:32:40;93970.44;;;5.00;69.39
83104;BME280;72975;48.134;11.630;2024-02-23T11:35:18;93970.22;;;4.91;68.86
83104;BME280;72975;48.134;11.630;2024-02-23T11:37:53;93968.38;;;5.02;68.18
83104;BME280;72975;48.134;11.630;2024-02-23T11:40:34;93962.69;;;5.00;68.34
83104;BME280;72975;48.134;11.630;2024-02-23T11:43:37;93949.75;;;5.05;68.38
83104;BME280;72975;48.134;11.630;2024-02-23T11:46:29;93957.81;;;4.93;67.76
83104;BME280;72975;48.134;11.630;2024-02-23T11:48:57;93954.47;;;4.93;68.43
83104;BME280;72975;48.134;11.630;2024-02-23T11:51:28;93958.13;;;4.87;68.74
83104;BME280;72975;48.134;11.630;2024-02-23T11:53:57;93965.31;;;4.95;68.13
83104;BME280;72975;48.134;11.630;2024-02-23T11:56:28;93971.50;;;4.94;67.81
83104;BME280;72975;48.134;11.630;2024-02-23T11:59:02;93957.59;;;4.85;66.39
83104;BME280;72975;48.134;11.630;2024-02-23T12:01:31;93957.78;;;4.98;66.37
83104;BME280;72975;48.134;11.630;2024-02-23T12:04:03;93960.66;;;4.92;66.26
83104;BME280;72975;48.134;11.630;2024-02-23T12:06:31;93954.88;;;4.51;67.00
83104;BME280;72975;48.134;11.630;2024-02-23T12:09:00;93963.28;;;4.87;66.94
83104;BME280;72975;48.134;11.630;2024-02-23T12:11:34;93954.34;;;4.64;67.05
83104;BME280;72975;48.134;11.630;2024-02-23T12:14:02;93954.78;;;4.76;66.81
83104;BME280;72975;48.134;11.630;2024-02-23T12:16:35;93955.88;;;4.55;66.43
83104;BME280;72975;48.134;11.630;2024-02-23T12:19:03;93958.69;;;4.68;66.65
83104;BME280;72975;48.134;11.630;2024-02-23T12:21:34;93964.66;;;4.64;66.28
83104;BME280;72975;48.134;11.630;2024-02-23T12:24:08;93972.91;;;4.66;65.06
83104;BME280;72975;48.134;11.630;2024-02-23T12:26:36;93965.16;;;4.66;65.15
83104;BME280;72975;48.134;11.630;2024-02-23T12:29:05;93952.00;;;4.62;64.78
83104;BME280;72975;48.134;11.630;2024-02-23T12:31:33;93940.38;;;4.60;64.45
83104;BME280;72975;48.134;11.630;2024-02-23T12:34:02;93934.72;;;4.58;64.59
83104;BME280;72975;48.134;11.630;2024-02-23T12:36:37;93926.19;;;4.62;64.65
83104;BME280;72975;48.134;11.630;2024-02-23T12:39:06;93924.63;;;4.61;64.68
83104;BME280;72975;48.134;11.630;2024-02-23T12:41:37;93926.91;;;4.68;64.52
83104;BME280;72975;48.134;11.630;2024-02-23T12:44:10;93923.56;;;4.67;64.45
83104;BME280;72975;48.134;11.630;2024-02-23T12:46:40;93927.59;;;4.89;64.55
83104;BME280;72975;48.134;11.630;2024-02-23T12:49:11;93936.47;;;4.72;65.24
83104;BME280;72975;48.134;11.630;2024-02-23T12:51:40;93942.69;;;4.66;65.57
83104;BME280;72975;48.134;11.630;2024-02-23T12:54:08;93939.66;;;4.49;65.49
83104;BME280;72975;48.134;11.630;2024-02-23T12:56:35;93936.78;;;4.56;65.21
83104;BME280;72975;48.134;11.630;2024-02-23T12:59:03;93925.66;;;4.60;65.62
83104;BME280;72975;48.134;11.630;2024-02-23T13:01:39;93918.94;;;4.59;65.78
83104;BME280;72975;48.134;11.630;2024-02-23T13:04:11;93910.94;;;4.56;65.32
83104;BME280;72975;48.134;11.630;2024-02-23T13:06:41;93903.47;;;4.54;65.13
83104;BME280;72975;48.134;11.630;2024-02-23T13:09:18;93912.19;;;4.68;65.56
83104;BME280;72975;48.134;11.630;2024-02-23T13:11:46;93915.78;;;4.72;66.22
83104;BME280;72975;48.134;11.630;2024-02-23T13:14:17;93921.94;;;4.87;65.64
83104;BME280;72975;48.134;11.630;2024-02-23T13:16:51;93913.00;;;4.64;65.88
83104;BME280;72975;48.134;11.630;2024-02-23T13:19:21;93933.66;;;4.64;65.25
83104;BME280;72975;48.134;11.630;2024-02-23T13:21:52;93943.28;;;4.48;65.22